Time;durP1;ratioP1;P1;durP2;ratioP2;P2;SDS_P1;SDS_P2;PMS_P1;PMS_P2;Temp;Humidity;BMP_temperature;BMP_pressure;BME280_temperature;BME280_humidity;BME280_pressure;Samples;Min_cycle;Max_cycle;Signal;HPM_P1;HPM_P2
2022/08/15 00:01:44;;;;;;;;;;;;;;;28.50;37.07;93614.38;5016446;28;7316;-63
2022/08/15 00:04:10;;;;;;;;;;;;;;;28.48;37.03;93611.44;5030203;28;7046;-63
2022/08/15 00:06:41;;;;;;;;;;;;;;;28.47;37.19;93615.47;5031395;28;7553;-63
2022/08/15 00:09:18;;;;;;;;;;;;;;;28.47;37.14;93615.47;5015796;28;9057;-63
2022/08/15 00:11:54;;;;;;;;;;;;;;;28.45;37.83;93611.78;5032183;28;7006;-63
2022/08/15 00:14:36;;;;;;;;;;;;;;;28.46;37.09;93619.53;5028623;28;9158;-63
2022/08/15 00:17:15;;;;;;;;;;;;;;;28.50;36.98;93621.94;5035396;28;7012;-63
2022/08/15 00:19:48;;;;;;;;;;;;;;;28.50;36.87;93606.09;5022023;28;9086;-63
2022/08/15 00:22:23;;;;;;;;;;;;;;;28.50;37.00;93608.84;5023952;28;9142;-63
2022/08/15 00:24:51;;;;;;;;;;;;;;;28.48;37.22;93613.44;5037791;28;9093;-63
2022/08/15 00:27:24;;;;;;;;;;;;;;;28.48;37.13;93596.84;5023702;28;7012;-63
2022/08/15 00:29:55;;;;;;;;;;;;;;;28.49;36.91;93585.25;5043137;28;7235;-63
2022/08/15 00:32:27;;;;;;;;;;;;;;;28.43;37.40;93584.66;5024182;28;7981;-63
2022/08/15 00:34:58;;;;;;;;;;;;;;;28.40;36.75;93583.00;5021093;28;7281;-63
2022/08/15 00:37:26;;;;;;;;;;;;;;;28.43;37.71;93586.72;5024288;28;7157;-63
2022/08/15 00:40:27;;;;;;;;;;;;;;;28.45;37.09;93584.84;5045310;28;8775;-63
2022/08/15 00:43:04;;;;;;;;;;;;;;;28.45;37.12;93587.63;4988275;28;9446;-63
2022/08/15 00:45:51;;;;;;;;;;;;;;;28.43;37.25;93590.19;4974790;28;6876;-63
2022/08/15 00:51:12;;;;;;;;;;;;;;;28.43;37.31;93595.00;4990468;28;9077;-63
2022/08/15 00:54:20;;;;;;;;;;;;;;;28.45;37.01;93595.19;4975278;28;7262;-63
2022/08/15 00:56:57;;;;;;;;;;;;;;;28.47;36.99;93587.81;4976083;28;7387;-63
2022/08/15 00:59:37;;;;;;;;;;;;;;;28.48;37.12;93599.63;4973356;28;9077;-63
2022/08/15 01:02:19;;;;;;;;;;;;;;;28.45;37.16;93595.91;4989885;28;7039;-63
2022/08/15 01:04:45;;;;;;;;;;;;;;;28.41;37.47;93592.03;4975890;28;7238;-63
2022/08/15 01:07:14;;;;;;;;;;;;;;;28.41;36.93;93587.25;4990042;28;9233;-63
2022/08/15 01:09:44;;;;;;;;;;;;;;;28.41;37.20;93581.72;4989811;28;7270;-63
2022/08/15 01:12:41;;;;;;;;;;;;;;;28.42;37.45;93588.72;4990728;28;9778;-63
2022/08/15 01:15:12;;;;;;;;;;;;;;;28.44;37.49;93585.41;4966099;28;8872;-63
2022/08/15 01:17:42;;;;;;;;;;;;;;;28.44;37.62;93574.34;4982894;28;9279;-63
2022/08/15 01:20:24;;;;;;;;;;;;;;;28.46;37.25;93585.59;5023952;28;8447;-63
2022/08/15 01:22:59;;;;;;;;;;;;;;;28.46;37.10;93586.34;5022799;28;8660;-63
2022/08/15 01:25:38;;;;;;;;;;;;;;;28.42;37.41;93590.75;5017868;28;9079;-63
2022/08/15 01:28:11;;;;;;;;;;;;;;;28.40;37.29;93587.78;5036678;28;7205;-63
2022/08/15 01:30:47;;;;;;;;;;;;;;;28.38;37.08;93591.13;5017469;28;7339;-63
2022/08/15 01:33:17;;;;;;;;;;;;;;;28.41;37.43;93594.78;5034809;28;6989;-63
2022/08/15 01:35:45;;;;;;;;;;;;;;;28.43;37.45;93595.72;5021496;28;7194;-63
2022/08/15 01:38:23;;;;;;;;;;;;;;;28.43;37.19;93598.50;5016690;28;7883;-63
2022/08/15 01:41:13;;;;;;;;;;;;;;;28.43;37.30;93606.78;5018243;28;9017;-63
2022/08/15 01:43:52;;;;;;;;;;;;;;;28.41;37.03;93601.06;5035634;28;9263;-63
2022/08/15 01:46:26;;;;;;;;;;;;;;;28.43;37.40;93606.78;5024272;28;7275;-63
2022/08/15 01:49:09;;;;;;;;;;;;;;;28.44;37.22;93607.53;5017884;28;8717;-63
2022/08/15 01:51:34;;;;;;;;;;;;;;;28.44;37.26;93604.78;5017707;28;7355;-63
2022/08/15 01:54:09;;;;;;;;;;;;;;;28.44;37.32;93607.53;5034329;28;7221;-63
2022/08/15 01:56:46;;;;;;;;;;;;;;;28.40;37.36;93607.16;5016469;28;8808;-63
2022/08/15 01:59:23;;;;;;;;;;;;;;;28.41;37.57;93603.09;5019818;28;7510;-63
2022/08/15 02:02:04;;;;;;;;;;;;;;;28.40;37.33;93591.31;5040007;28;7332;-63
2022/08/15 02:04:41;;;;;;;;;;;;;;;28.41;37.21;93589.25;5037465;28;6863;-63
2022/08/15 02:07:12;;;;;;;;;;;;;;;28.40;37.44;93590.56;5022780;28;8695;-63
2022/08/15 02:10:10;;;;;;;;;;;;;;;28.43;37.27;93587.44;5023222;28;7372;-63
2022/08/15 02:12:49;;;;;;;;;;;;;;;28.42;37.61;93591.50;4958740;28;9579;-63
2022/08/15 02:15:24;;;;;;;;;;;;;;;28.41;37.25;93584.47;4947647;28;7360;-63
2022/08/15 02:17:52;;;;;;;;;;;;;;;28.44;37.22;93582.63;4955397;28;9150;-63
2022/08/15 02:20:23;;;;;;;;;;;;;;;28.42;37.34;93583.19;4938887;28;7106;-63
2022/08/15 02:22:55;;;;;;;;;;;;;;;28.41;37.42;93590.00;4938849;28;7205;-63
2022/08/15 02:25:31;;;;;;;;;;;;;;;28.40;37.59;93583.00;4942947;28;7017;-63
2022/08/15 02:28:14;;;;;;;;;;;;;;;28.41;37.97;93589.25;4962257;28;7517;-63
2022/08/15 02:30:42;;;;;;;;;;;;;;;28.40;37.51;93591.31;4961367;28;7622;-63
2022/08/15 02:33:36;;;;;;;;;;;;;;;28.40;37.63;93598.84;4962494;28;7284;-63
2022/08/15 02:37:00;;;;;;;;;;;;;;;28.38;37.66;93608.44;4949377;28;7346;-63
2022/08/15 02:39:26;;;;;;;;;;;;;;;28.36;36.97;93588.16;4959410;28;9053;-63
2022/08/15 02:42:03;;;;;;;;;;;;;;;28.37;37.42;93600.69;4946765;28;7449;-63
2022/08/15 02:44:42;;;;;;;;;;;;;;;28.36;37.53;93593.69;4960170;28;9353;-63
2022/08/15 02:47:14;;;;;;;;;;;;;;;28.36;37.31;93599.22;4951494;28;9273;-63
2022/08/15 02:49:42;;;;;;;;;;;;;;;28.34;37.59;93599.00;4977831;28;7354;-63
2022/08/15 02:52:24;;;;;;;;;;;;;;;28.33;37.61;93601.06;5022061;28;9487;-63
2022/08/15 02:54:50;;;;;;;;;;;;;;;28.32;37.60;93596.06;5036687;28;9103;-63
2022/08/15 02:57:17;;;;;;;;;;;;;;;28.33;37.54;93592.00;5020814;28;7011;-63
2022/08/15 02:59:46;;;;;;;;;;;;;;;28.32;37.68;93596.06;5028393;28;7203;-63
2022/08/15 03:02:28;;;;;;;;;;;;;;;28.31;37.70;93603.63;5039759;28;9210;-63
2022/08/15 03:04:58;;;;;;;;;;;;;;;28.31;37.50;93609.16;5018619;28;7238;-63
2022/08/15 03:07:33;;;;;;;;;;;;;;;28.31;37.71;93597.34;5021283;28;7094;-63
2022/08/15 03:10:19;;;;;;;;;;;;;;;28.29;37.78;93592.38;5023047;28;8933;-63
2022/08/15 03:13:04;;;;;;;;;;;;;;;28.29;38.13;93589.63;5035806;28;7328;-63
2022/08/15 03:15:46;;;;;;;;;;;;;;;28.28;37.68;93579.09;5019480;28;7474;-63
2022/08/15 03:18:15;;;;;;;;;;;;;;;28.27;37.80;93577.63;5038876;28;9065;-63
2022/08/15 03:21:17;;;;;;;;;;;;;;;28.27;37.68;93583.88;5021070;28;7497;-63
2022/08/15 03:23:50;;;;;;;;;;;;;;;28.24;37.63;93570.41;4941968;28;8765;-63
2022/08/15 03:26:21;;;;;;;;;;;;;;;28.25;37.73;93569.13;4941362;28;7275;-63
2022/08/15 03:28:52;;;;;;;;;;;;;;;28.26;37.49;93573.38;4938879;28;7221;-63
2022/08/15 03:31:18;;;;;;;;;;;;;;;28.24;37.50;93565.63;4942416;28;7311;-63
2022/08/15 03:33:47;;;;;;;;;;;;;;;28.21;37.66;93555.66;4952023;28;7144;-63
2022/08/15 03:36:22;;;;;;;;;;;;;;;28.22;37.96;93556.41;4936413;28;7302;-63
2022/08/15 03:38:48;;;;;;;;;;;;;;;28.21;37.64;93552.88;4953263;28;9101;-63
2022/08/15 03:41:16;;;;;;;;;;;;;;;28.21;37.54;93546.59;4950171;28;8815;-63
2022/08/15 03:43:44;;;;;;;;;;;;;;;28.23;37.73;93555.13;4942560;28;7274;-63
2022/08/15 03:46:21;;;;;;;;;;;;;;;28.22;37.78;93546.06;4936340;28;7259;-63
2022/08/15 03:48:52;;;;;;;;;;;;;;;28.21;37.41;93541.81;4937533;28;7332;-63
2022/08/15 03:51:21;;;;;;;;;;;;;;;28.23;37.62;93544.06;4938091;28;7025;-63
2022/08/15 03:53:52;;;;;;;;;;;;;;;28.23;37.58;93547.53;4940866;28;7144;-63
2022/08/15 03:56:25;;;;;;;;;;;;;;;28.23;37.87;93553.06;4954623;28;8939;-63
2022/08/15 03:58:53;;;;;;;;;;;;;;;28.22;37.42;93557.13;4955920;28;6982;-63
2022/08/15 04:01:30;;;;;;;;;;;;;;;28.22;37.73;93550.88;5039504;28;9253;-63
2022/08/15 04:03:57;;;;;;;;;;;;;;;28.21;37.59;93554.91;5021071;28;7171;-63
2022/08/15 04:06:29;;;;;;;;;;;;;;;28.21;37.52;93563.19;5018815;28;7239;-63
2022/08/15 04:08:59;;;;;;;;;;;;;;;28.20;37.39;93554.19;5029228;28;9354;-63
2022/08/15 04:11:29;;;;;;;;;;;;;;;28.19;37.39;93551.94;5019493;28;7233;-63
2022/08/15 04:13:55;;;;;;;;;;;;;;;28.20;37.43;93558.97;5027584;28;8950;-63
2022/08/15 04:16:21;;;;;;;;;;;;;;;28.19;37.74;93560.25;5036723;28;7211;-62
2022/08/15 04:18:47;;;;;;;;;;;;;;;28.20;37.44;93559.72;5019362;28;7322;-63
2022/08/15 04:21:14;;;;;;;;;;;;;;;28.19;37.57;93574.81;5026930;28;7139;-63
2022/08/15 04:23:45;;;;;;;;;;;;;;;28.20;37.84;93561.72;5019567;28;7024;-63
2022/08/15 04:26:18;;;;;;;;;;;;;;;28.18;37.66;93561.53;5035901;28;7229;-63
2022/08/15 04:28:47;;;;;;;;;;;;;;;28.17;37.60;93565.59;5019611;28;6979;-63
2022/08/15 04:31:19;;;;;;;;;;;;;;;28.18;37.76;93567.81;5034429;28;7987;-63
2022/08/15 04:33:46;;;;;;;;;;;;;;;28.18;37.65;93572.59;5034056;28;7133;-63
2022/08/15 04:36:17;;;;;;;;;;;;;;;28.19;37.62;93579.59;5036161;28;9684;-63
2022/08/15 04:39:13;;;;;;;;;;;;;;;28.20;37.65;93576.31;5027049;28;8684;-62
2022/08/15 04:41:42;;;;;;;;;;;;;;;28.18;37.61;93578.88;5021800;28;7629;-63
2022/08/15 04:44:09;;;;;;;;;;;;;;;28.19;37.67;93577.59;5039115;28;7087;-63
2022/08/15 04:46:40;;;;;;;;;;;;;;;28.19;37.04;93580.34;5023405;28;9236;-63
2022/08/15 04:49:06;;;;;;;;;;;;;;;28.19;37.17;93582.38;5023250;28;6986;-63
2022/08/15 04:51:37;;;;;;;;;;;;;;;28.19;37.45;93587.91;5022358;28;6984;-63
2022/08/15 04:54:15;;;;;;;;;;;;;;;28.19;37.48;93596.19;5022866;28;8773;-63
2022/08/15 04:56:45;;;;;;;;;;;;;;;28.19;37.37;93596.94;5024273;28;9083;-63
2022/08/15 04:59:11;;;;;;;;;;;;;;;28.18;37.60;93589.19;5020526;28;9340;-63
2022/08/15 05:01:43;;;;;;;;;;;;;;;28.15;37.09;93585.50;5021365;28;7217;-63
2022/08/15 05:04:14;;;;;;;;;;;;;;;28.17;37.38;93587.69;5039150;28;8343;-63
2022/08/15 05:06:47;;;;;;;;;;;;;;;28.17;37.60;93590.47;5038014;28;9114;-63
2022/08/15 05:09:23;;;;;;;;;;;;;;;28.15;37.24;93595.81;5022572;28;7095;-63
2022/08/15 05:11:50;;;;;;;;;;;;;;;28.13;37.48;93593.59;5023448;28;7233;-63
2022/08/15 05:14:19;;;;;;;;;;;;;;;28.15;37.56;93593.03;5037742;28;7474;-63
2022/08/15 05:16:45;;;;;;;;;;;;;;;28.15;37.57;93604.84;5022400;28;7220;-62
2022/08/15 05:19:11;;;;;;;;;;;;;;;28.15;37.58;93612.41;5018527;28;8139;-63
2022/08/15 05:21:39;;;;;;;;;;;;;;;28.16;37.60;93614.63;5016517;28;7449;-63
2022/08/15 05:24:09;;;;;;;;;;;;;;;28.17;37.39;93604.28;5017934;28;7025;-63
2022/08/15 05:26:39;;;;;;;;;;;;;;;28.17;37.37;93604.28;5018514;28;9022;-63
2022/08/15 05:29:12;;;;;;;;;;;;;;;28.17;37.51;93609.81;5025569;28;9027;-63
2022/08/15 05:31:38;;;;;;;;;;;;;;;28.17;37.61;93609.81;5021575;28;7311;-62
2022/08/15 05:34:19;;;;;;;;;;;;;;;28.15;38.25;93599.31;5025943;28;7171;-62
2022/08/15 05:37:28;;;;;;;;;;;;;;;28.16;37.60;93600.06;5039965;28;9665;-62
2022/08/15 05:40:22;;;;;;;;;;;;;;;28.19;37.39;93591.41;5038648;28;9267;-62
2022/08/15 05:43:21;;;;;;;;;;;;;;;28.18;38.78;93597.50;5024922;28;9168;-63
2022/08/15 05:46:26;;;;;;;;;;;;;;;28.18;37.66;93597.50;5026273;28;7090;-62
2022/08/15 05:49:16;;;;;;;;;;;;;;;28.15;41.45;93595.81;5038603;28;7057;-62
2022/08/15 05:52:05;;;;;;;;;;;;;;;28.16;40.00;93594.53;5023453;28;9391;-62
2022/08/15 05:54:56;;;;;;;;;;;;;;;28.16;39.78;93600.06;5021412;28;7249;-62
2022/08/15 05:57:30;;;;;;;;;;;;;;;28.18;39.30;93591.97;5021860;28;8082;-62
2022/08/15 06:00:06;;;;;;;;;;;;;;;28.16;38.96;93594.53;5019005;28;6982;-62
2022/08/15 06:02:39;;;;;;;;;;;;;;;28.16;38.83;93586.97;5023231;28;6994;-62
2022/08/15 06:05:11;;;;;;;;;;;;;;;28.17;38.78;93590.47;5035459;28;7084;-62
2022/08/15 06:07:45;;;;;;;;;;;;;;;28.15;37.83;93579.97;5023108;28;7385;-62
2022/08/15 06:10:41;;;;;;;;;;;;;;;28.18;38.63;93586.44;5022016;28;7000;-62
2022/08/15 06:13:23;;;;;;;;;;;;;;;28.19;38.65;93579.59;5033036;28;9202;-62
2022/08/15 06:15:58;;;;;;;;;;;;;;;28.17;38.25;93584.94;5018410;28;7160;-62
2022/08/15 06:18:29;;;;;;;;;;;;;;;28.19;37.84;93596.19;5018778;28;8741;-62
2022/08/15 06:21:06;;;;;;;;;;;;;;;28.16;38.87;93591.78;5033718;28;8723;-62
2022/08/15 06:24:14;;;;;;;;;;;;;;;28.16;38.67;93591.78;5034801;28;7332;-62
2022/08/15 06:26:46;;;;;;;;;;;;;;;28.14;38.47;93600.59;5015515;28;9183;-63
2022/08/15 06:29:15;;;;;;;;;;;;;;;28.13;39.04;93592.84;5015953;28;7914;-63
2022/08/15 06:31:53;;;;;;;;;;;;;;;28.13;39.76;93598.38;5034396;28;9116;-63
2022/08/15 06:34:39;;;;;;;;;;;;;;;28.15;39.42;93588.25;5014922;28;9774;-63
2022/08/15 06:37:38;;;;;;;;;;;;;;;28.15;39.91;93591.03;5028991;28;9174;-63
2022/08/15 06:40:20;;;;;;;;;;;;;;;28.14;39.94;93591.56;5013184;28;6989;-63
2022/08/15 06:42:47;;;;;;;;;;;;;;;28.16;39.89;93586.97;5016243;28;7186;-63
2022/08/15 06:45:16;;;;;;;;;;;;;;;28.16;39.73;93589.75;5031782;28;6931;-63
2022/08/15 06:47:44;;;;;;;;;;;;;;;28.17;39.43;93582.16;5029600;28;7055;-63
2022/08/15 06:50:48;;;;;;;;;;;;;;;28.16;40.58;93581.47;5015320;28;7524;-63
2022/08/15 06:53:25;;;;;;;;;;;;;;;28.15;40.22;93582.72;5017934;28;8644;-63
2022/08/15 06:55:57;;;;;;;;;;;;;;;28.16;40.42;93589.75;5036147;28;7229;-63
2022/08/15 06:59:01;;;;;;;;;;;;;;;28.17;39.92;93582.16;5040341;28;9415;-62
2022/08/15 07:02:18;;;;;;;;;;;;;;;28.16;39.62;93584.22;5022583;28;7178;-62
2022/08/15 07:05:07;;;;;;;;;;;;;;;28.16;39.61;93589.00;5019344;28;7066;-62
2022/08/15 07:07:40;;;;;;;;;;;;;;;28.13;39.64;93587.31;5024068;28;7050;-62
2022/08/15 07:10:58;;;;;;;;;;;;;;;28.13;39.84;93582.53;5023077;28;7001;-62
2022/08/15 07:13:57;;;;;;;;;;;;;;;28.14;39.49;93580.53;5024903;28;7435;-63
2022/08/15 07:16:42;;;;;;;;;;;;;;;28.15;40.41;93581.97;5037420;28;9011;-63
2022/08/15 07:19:19;;;;;;;;;;;;;;;28.15;40.20;93576.47;5038384;28;7242;-63
2022/08/15 07:21:54;;;;;;;;;;;;;;;28.17;39.94;93573.88;5022336;28;7134;-62
2022/08/15 07:24:33;;;;;;;;;;;;;;;28.15;40.28;93557.84;5021769;28;9363;-63
2022/08/15 07:27:16;;;;;;;;;;;;;;;28.17;40.00;93566.34;5041334;28;7278;-62
2022/08/15 07:30:07;;;;;;;;;;;;;;;28.18;40.04;93569.84;5019887;28;7236;-63
2022/08/15 07:32:55;;;;;;;;;;;;;;;28.18;39.98;93561.53;5023973;28;7417;-62
2022/08/15 07:35:29;;;;;;;;;;;;;;;28.17;40.09;93571.84;5025710;28;6987;-63
2022/08/15 07:37:58;;;;;;;;;;;;;;;28.17;40.14;93565.59;5030790;28;7040;-62
2022/08/15 07:41:14;;;;;;;;;;;;;;;28.17;39.73;93557.28;5023781;28;7516;-62
2022/08/15 07:44:31;;;;;;;;;;;;;;;28.19;39.80;93557.47;4913069;29;7670;-63
2022/08/15 07:47:35;;;;;;;;;;;;;;;28.19;39.72;93558.22;4863493;29;9101;-62
2022/08/15 07:50:12;;;;;;;;;;;;;;;28.19;39.90;93569.28;4849083;29;7282;-62
2022/08/15 07:52:39;;;;;;;;;;;;;;;28.19;39.74;93560.25;4855328;29;9144;-62
2022/08/15 07:55:18;;;;;;;;;;;;;;;28.19;39.84;93554.72;4867695;29;7236;-62
2022/08/15 07:58:22;;;;;;;;;;;;;;;28.19;39.73;93552.69;4852004;29;7953;-62
2022/08/15 08:01:44;;;;;;;;;;;;;;;28.19;39.74;93552.69;4813978;29;7253;-62
2022/08/15 08:04:47;;;;;;;;;;;;;;;28.21;40.02;93552.13;4754679;29;8481;-62
2022/08/15 08:07:20;;;;;;;;;;;;;;;28.20;39.40;93543.13;4752729;30;7528;-62
2022/08/15 08:10:18;;;;;;;;;;;;;;;28.22;39.68;93550.88;4766359;30;7670;-62
2022/08/15 08:13:12;;;;;;;;;;;;;;;28.21;39.81;93546.59;4775540;30;8573;-62
2022/08/15 08:15:47;;;;;;;;;;;;;;;28.21;39.72;93546.59;4767558;29;7839;-62
2022/08/15 08:18:22;;;;;;;;;;;;;;;28.21;40.35;93536.28;4788619;29;7655;-62
2022/08/15 08:20:58;;;;;;;;;;;;;;;28.20;39.79;93532.06;4795694;29;7802;-62
2022/08/15 08:23:42;;;;;;;;;;;;;;;28.19;39.27;93530.56;4843057;29;7203;-63
2022/08/15 08:26:27;;;;;;;;;;;;;;;28.21;39.67;93521.72;4860222;29;7221;-62
2022/08/15 08:29:43;;;;;;;;;;;;;;;28.17;39.74;93522.09;4861625;29;7023;-62
2022/08/15 08:33:08;;;;;;;;;;;;;;;28.19;39.58;93519.50;4785389;29;7265;-62
2022/08/15 08:36:18;;;;;;;;;;;;;;;28.20;39.67;93523.03;4814325;29;7279;-62
2022/08/15 08:39:38;;;;;;;;;;;;;;;28.19;39.61;93513.97;4808622;29;7300;-63
2022/08/15 08:42:23;;;;;;;;;;;;;;;28.19;39.57;93522.28;4855527;29;7240;-62
2022/08/15 08:45:05;;;;;;;;;;;;;;;28.19;40.02;93518.78;4866845;29;9434;-62
2022/08/15 08:47:35;;;;;;;;;;;;;;;28.20;39.74;93529.31;4868728;29;9110;-63
2022/08/15 08:50:16;;;;;;;;;;;;;;;28.20;39.36;93529.31;4854350;29;7920;-62
2022/08/15 08:53:07;;;;;;;;;;;;;;;28.21;39.57;93530.75;4852797;29;9141;-62
2022/08/15 08:55:47;;;;;;;;;;;;;;;28.21;39.71;93528.00;4856058;29;7468;-62
2022/08/15 08:58:52;;;;;;;;;;;;;;;28.21;39.75;93528.00;4871601;29;7194;-62
2022/08/15 09:01:36;;;;;;;;;;;;;;;28.20;39.35;93528.56;4852369;29;7343;-62
2022/08/15 09:04:32;;;;;;;;;;;;;;;28.21;39.38;93516.94;4861159;29;8996;-62
2022/08/15 09:07:19;;;;;;;;;;;;;;;28.21;39.60;93522.47;4867126;29;8752;-62
2022/08/15 09:09:55;;;;;;;;;;;;;;;28.21;40.21;93521.72;4933578;28;7358;-62
2022/08/15 09:15:21;;;;;;;;;;;;;;;28.22;39.89;93517.69;5001185;28;7159;-62
2022/08/15 09:18:08;;;;;;;;;;;;;;;28.25;39.41;93516.59;5025902;28;9267;-62
2022/08/15 09:20:59;;;;;;;;;;;;;;;28.26;39.61;93518.81;5039535;28;8319;-63
2022/08/15 09:23:35;;;;;;;;;;;;;;;28.25;39.09;93522.13;5025289;28;8836;-62
2022/08/15 09:26:20;;;;;;;;;;;;;;;28.24;39.91;93515.84;5040047;28;7223;-62
2022/08/15 09:29:02;;;;;;;;;;;;;;;28.25;39.40;93517.31;5024432;28;7183;-62
2022/08/15 09:31:41;;;;;;;;;;;;;;;28.26;39.55;93510.50;5022768;28;7244;-62
2022/08/15 09:34:26;;;;;;;;;;;;;;;28.27;39.47;93514.72;5011771;28;7318;-62
2022/08/15 09:41:03;;;;;;;;;;;;;;;28.28;39.39;93515.47;4979970;28;7217;-62
2022/08/15 09:44:02;;;;;;;;;;;;;;;28.30;39.50;93510.13;4966224;28;7093;-62
2022/08/15 09:46:40;;;;;;;;;;;;;;;28.30;39.30;93497.06;4980254;28;7311;-62
2022/08/15 09:49:32;;;;;;;;;;;;;;;28.28;39.61;93510.69;4969130;28;9115;-62
2022/08/15 09:52:19;;;;;;;;;;;;;;;28.28;39.61;93496.88;4963945;28;7138;-63
2022/08/15 09:54:56;;;;;;;;;;;;;;;28.30;39.63;93499.81;4980226;28;7073;-62
2022/08/15 09:58:09;;;;;;;;;;;;;;;28.30;39.37;93497.06;4988065;28;9017;-63
2022/08/15 10:01:10;;;;;;;;;;;;;;;28.31;38.71;93492.25;4988480;28;9259;-62
2022/08/15 10:03:52;;;;;;;;;;;;;;;28.30;39.16;93485.25;4982504;28;7073;-63
2022/08/15 10:06:31;;;;;;;;;;;;;;;28.32;39.54;93499.25;4964923;28;7640;-63
2022/08/15 10:09:21;;;;;;;;;;;;;;;28.34;39.06;93485.63;4980255;28;9110;-63
2022/08/15 10:11:46;;;;;;;;;;;;;;;28.34;38.87;93485.63;4980637;28;7621;-62
2022/08/15 10:14:42;;;;;;;;;;;;;;;28.34;38.88;93482.84;4980963;28;7418;-63
2022/08/15 10:17:33;;;;;;;;;;;;;;;28.36;39.24;93494.13;5000756;28;7029;-63
2022/08/15 10:20:47;;;;;;;;;;;;;;;28.35;38.56;93476.78;5023726;28;9055;-62
2022/08/15 10:24:06;;;;;;;;;;;;;;;28.38;38.57;93469.41;4970128;28;8112;-63
2022/08/15 10:27:09;;;;;;;;;;;;;;;28.41;38.37;93473.09;4860190;29;8283;-63
2022/08/15 10:30:08;;;;;;;;;;;;;;;28.43;38.51;93462.22;4858602;29;7517;-62
2022/08/15 10:32:41;;;;;;;;;;;;;;;28.43;38.30;93454.66;4870131;29;9451;-62
2022/08/15 10:35:21;;;;;;;;;;;;;;;28.44;38.35;93458.91;4852422;29;9245;-62
2022/08/15 10:37:53;;;;;;;;;;;;;;;28.46;37.71;93453.56;4868805;29;7532;-62
2022/08/15 10:40:30;;;;;;;;;;;;;;;28.45;37.78;93457.59;4868540;29;7477;-62
2022/08/15 10:43:11;;;;;;;;;;;;;;;28.47;37.96;93452.25;4852825;29;9181;-63
2022/08/15 10:45:54;;;;;;;;;;;;;;;28.48;38.14;93448.22;4853580;29;7461;-62
2022/08/15 10:48:30;;;;;;;;;;;;;;;28.48;38.17;93450.97;4873589;29;7297;-62
2022/08/15 10:51:15;;;;;;;;;;;;;;;28.50;37.54;93445.63;4857158;29;8753;-62
2022/08/15 10:54:22;;;;;;;;;;;;;;;28.49;37.35;93435.88;4855967;29;7239;-62
2022/08/15 10:56:54;;;;;;;;;;;;;;;28.49;37.42;93438.63;4875214;29;7104;-63
2022/08/15 10:59:33;;;;;;;;;;;;;;;28.49;37.31;93430.34;4906578;29;7227;-62
2022/08/15 11:02:17;;;;;;;;;;;;;;;28.49;36.78;93419.28;4974060;28;6865;-62
2022/08/15 11:04:45;;;;;;;;;;;;;;;28.49;36.78;93424.06;5021900;28;8767;-62
2022/08/15 11:07:28;;;;;;;;;;;;;;;28.47;36.55;93416.28;5036546;28;9733;-62
2022/08/15 11:10:09;;;;;;;;;;;;;;;28.51;36.01;93422.22;5037571;28;6964;-63
2022/08/15 11:12:45;;;;;;;;;;;;;;;28.52;36.18;93426.44;5016434;28;9135;-63
2022/08/15 11:15:20;;;;;;;;;;;;;;;28.54;36.72;93423.88;5011246;28;9147;-62
2022/08/15 11:17:53;;;;;;;;;;;;;;;28.52;36.97;93422.94;5016139;28;9098;-63
2022/08/15 11:20:27;;;;;;;;;;;;;;;28.54;36.29;93420.34;5030661;28;7238;-62
2022/08/15 11:22:58;;;;;;;;;;;;;;;28.54;36.33;93421.09;5032204;28;7497;-62
2022/08/15 11:25:37;;;;;;;;;;;;;;;28.58;36.00;93420.78;5029826;28;9127;-62
2022/08/15 11:28:24;;;;;;;;;;;;;;;28.58;36.01;93412.47;5013444;28;7211;-62
2022/08/15 11:31:19;;;;;;;;;;;;;;;28.61;36.16;93408.59;5014967;28;7425;-62
2022/08/15 11:33:48;;;;;;;;;;;;;;;28.61;36.36;93408.59;5022687;28;9050;-62
2022/08/15 11:36:19;;;;;;;;;;;;;;;28.60;36.07;93407.13;5017596;28;8862;-62
2022/08/15 11:38:55;;;;;;;;;;;;;;;28.61;36.07;93397.50;5037606;28;7058;-62
2022/08/15 11:41:29;;;;;;;;;;;;;;;28.61;36.42;93400.28;5034085;28;7292;-62
2022/08/15 11:44:01;;;;;;;;;;;;;;;28.62;36.70;93401.78;5017712;28;9201;-62
2022/08/15 11:46:28;;;;;;;;;;;;;;;28.62;36.50;93393.47;5033816;28;7830;-62
2022/08/15 11:49:27;;;;;;;;;;;;;;;28.65;37.08;93404.16;5004333;28;7267;-62
2022/08/15 11:52:07;;;;;;;;;;;;;;;28.65;36.98;93393.09;5017395;28;9465;-63
2022/08/15 11:54:33;;;;;;;;;;;;;;;28.67;37.40;93396.03;5020920;28;7267;-63
2022/08/15 11:57:21;;;;;;;;;;;;;;;28.69;37.35;93392.69;5019702;28;9482;-64
2022/08/15 12:00:39;;;;;;;;;;;;;;;28.69;36.81;93395.47;5020736;28;7078;-62
2022/08/15 12:03:57;;;;;;;;;;;;;;;28.71;37.08;93401.94;5037346;28;8855;-62
2022/08/15 12:06:33;;;;;;;;;;;;;;;28.73;37.24;93402.09;5022189;28;7651;-62
2022/08/15 12:09:27;;;;;;;;;;;;;;;28.73;37.39;93401.41;5030284;28;7669;-62
2022/08/15 12:12:21;;;;;;;;;;;;;;;28.69;37.70;93407.28;5021544;28;9619;-62
2022/08/15 12:15:32;;;;;;;;;;;;;;;28.73;38.00;93413.19;5036266;28;6999;-62
2022/08/15 12:18:20;;;;;;;;;;;;;;;28.76;37.88;93406.53;5023932;28;7017;-62
2022/08/15 12:20:59;;;;;;;;;;;;;;;28.79;37.63;93405.44;5021625;28;9662;-62
2022/08/15 12:23:45;;;;;;;;;;;;;;;28.81;37.12;93404.88;5041980;28;7246;-63
2022/08/15 12:26:25;;;;;;;;;;;;;;;28.80;37.56;93403.38;5031957;28;9042;-63
2022/08/15 12:29:03;;;;;;;;;;;;;;;28.81;37.63;93410.41;5025523;28;7341;-62
2022/08/15 12:31:37;;;;;;;;;;;;;;;28.82;37.85;93403.56;5043845;28;8612;-62
2022/08/15 12:34:50;;;;;;;;;;;;;;;28.84;37.88;93401.72;5039727;28;7013;-62
2022/08/15 12:37:28;;;;;;;;;;;;;;;28.81;38.52;93394.56;4936441;28;7217;-62
2022/08/15 12:39:59;;;;;;;;;;;;;;;28.82;37.86;93398.03;4946216;28;7264;-62
2022/08/15 12:42:36;;;;;;;;;;;;;;;28.82;38.11;93404.31;4947077;28;8773;-61
2022/08/15 12:45:13;;;;;;;;;;;;;;;28.83;38.41;93394.00;4943054;28;7428;-62
2022/08/15 12:47:40;;;;;;;;;;;;;;;28.84;38.71;93398.25;4945962;28;8763;-62
2022/08/15 12:50:07;;;;;;;;;;;;;;;28.84;38.01;93395.47;4941619;28;7296;-62
2022/08/15 12:52:36;;;;;;;;;;;;;;;28.84;37.78;93404.50;4923378;28;7242;-62
2022/08/15 12:55:04;;;;;;;;;;;;;;;28.84;37.73;93401.72;4940502;28;7274;-62
2022/08/15 12:57:33;;;;;;;;;;;;;;;28.87;37.22;93400.63;4930121;28;7908;-62
2022/08/15 13:00:04;;;;;;;;;;;;;;;28.89;36.76;93403.56;4929527;28;7396;-62
2022/08/15 13:02:30;;;;;;;;;;;;;;;28.91;36.96;93400.25;4914481;28;7475;-62
2022/08/15 13:04:56;;;;;;;;;;;;;;;28.90;37.63;93399.53;4929980;28;7100;-62
2022/08/15 13:07:32;;;;;;;;;;;;;;;28.88;37.87;93393.78;4944040;28;7606;-62
2022/08/15 13:10:01;;;;;;;;;;;;;;;28.88;37.07;93384.75;4932758;28;9067;-61
2022/08/15 13:12:55;;;;;;;;;;;;;;;28.90;37.46;93391.22;4933795;28;9483;-63
2022/08/15 13:15:21;;;;;;;;;;;;;;;28.90;37.28;93396.75;5038598;28;7017;-62
2022/08/15 13:17:49;;;;;;;;;;;;;;;28.87;37.46;93384.03;5015068;28;9088;-61
2022/08/15 13:25:50;;;;;;;;;;;;;;;28.85;37.76;93411.53;5037119;28;8595;-61
2022/08/15 13:28:16;;;;;;;;;;;;;;;28.85;37.86;93413.53;5019276;28;7226;-61
2022/08/15 13:30:44;;;;;;;;;;;;;;;28.84;38.29;93421.09;5023599;28;7336;-62
2022/08/15 13:33:12;;;;;;;;;;;;;;;28.83;37.88;93427.94;5023322;28;7052;-62
2022/08/15 13:35:38;;;;;;;;;;;;;;;28.85;37.74;93461.34;5023357;28;7280;-62
2022/08/15 13:38:10;;;;;;;;;;;;;;;28.86;38.55;93484.22;5039725;28;7602;-62
2022/08/15 13:40:51;;;;;;;;;;;;;;;28.85;38.15;93482.75;5024372;28;9378;-62
2022/08/15 13:43:27;;;;;;;;;;;;;;;28.86;37.99;93476.63;5025118;28;7287;-62
2022/08/15 13:45:53;;;;;;;;;;;;;;;28.87;37.88;93482.91;5042467;28;7287;-62
2022/08/15 13:48:26;;;;;;;;;;;;;;;28.88;38.23;93485.13;5037113;28;7463;-62
2022/08/15 13:50:53;;;;;;;;;;;;;;;28.90;37.87;93474.25;5018487;28;7247;-62
2022/08/15 13:53:20;;;;;;;;;;;;;;;28.89;38.22;93453.41;5019357;28;8696;-62
2022/08/15 13:55:46;;;;;;;;;;;;;;;28.89;38.05;93444.34;5037969;28;7288;-62
2022/08/15 13:58:28;;;;;;;;;;;;;;;28.88;38.22;93429.78;5040090;28;7239;-62
2022/08/15 14:00:58;;;;;;;;;;;;;;;28.87;38.20;93422.03;5025047;28;7353;-62
2022/08/15 14:03:28;;;;;;;;;;;;;;;28.85;38.29;93430.16;5038563;28;7062;-62
2022/08/15 14:05:56;;;;;;;;;;;;;;;28.86;38.54;93434.41;5016854;28;7169;-62
2022/08/15 14:08:22;;;;;;;;;;;;;;;28.87;38.54;93446.94;5034623;28;9346;-62
2022/08/15 14:10:51;;;;;;;;;;;;;;;28.89;38.05;93447.13;5036357;28;7852;-63
2022/08/15 14:13:18;;;;;;;;;;;;;;;28.90;38.55;93454.88;5017696;28;8708;-63
2022/08/15 14:15:46;;;;;;;;;;;;;;;28.89;38.67;93464.47;5022584;28;7307;-62
2022/08/15 14:18:14;;;;;;;;;;;;;;;28.86;38.54;93490.47;5015289;28;9040;-62